Time;durP1;ratioP1;P1;durP2;ratioP2;P2;SDS_P1;SDS_P2;PMS_P1;PMS_P2;Temp;Humidity;BMP_temperature;BMP_pressure;BME280_temperature;BME280_humidity;BME280_pressure;Samples;Min_cycle;Max_cycle;Signal;HPM_P1;HPM_P2
2021/12/30 00:00:20;;;;;;;56.88;11.00;;;;;;;10.05;100.00;101100.41;5112967;28;20024;-77
2021/12/30 00:02:46;;;;;;;61.70;11.15;;;;;;;10.09;100.00;101102.25;5112380;28;20046;-77
2021/12/30 00:05:12;;;;;;;65.22;10.88;;;;;;;10.09;100.00;101098.72;5093742;28;20036;-77
2021/12/30 00:07:37;;;;;;;64.70;11.18;;;;;;;10.09;100.00;101098.72;5085262;28;20084;-77
2021/12/30 00:10:04;;;;;;;65.15;11.38;;;;;;;10.10;100.00;101101.38;5100482;28;20044;-77
2021/12/30 00:12:31;;;;;;;62.60;12.30;;;;;;;10.16;100.00;101090.13;5086030;28;20081;-76
2021/12/30 00:14:56;;;;;;;48.78;9.35;;;;;;;10.19;100.00;101098.09;5109427;28;20518;-77
2021/12/30 00:17:22;;;;;;;52.08;10.40;;;;;;;10.19;100.00;101091.94;5108331;28;20059;-76
2021/12/30 00:19:48;;;;;;;47.22;10.25;;;;;;;10.22;100.00;101086.75;5120304;28;20075;-77
2021/12/30 00:22:15;;;;;;;65.95;13.82;;;;;;;10.19;100.00;101097.22;5109711;28;20043;-76
2021/12/30 00:24:41;;;;;;;49.58;10.45;;;;;;;10.21;100.00;101100.75;5106006;28;20171;-77
2021/12/30 00:27:12;;;;;;;51.63;12.70;;;;;;;10.23;100.00;101081.50;5105607;28;20040;-76
2021/12/30 00:29:38;;;;;;;45.53;10.95;;;;;;;10.27;100.00;101085.13;5092087;28;20055;-76
2021/12/30 00:32:04;;;;;;;53.42;11.23;;;;;;;10.30;100.00;101079.91;5089361;28;20028;-76
2021/12/30 00:34:30;;;;;;;51.88;11.52;;;;;;;10.29;100.00;101088.66;5081086;28;20034;-77
2021/12/30 00:36:55;;;;;;;54.63;10.90;;;;;;;10.28;100.00;101092.13;5106087;28;20028;-77
2021/12/30 00:39:21;;;;;;;51.33;10.15;;;;;;;10.29;100.00;101094.81;5085874;28;20023;-77
2021/12/30 00:41:46;;;;;;;54.00;10.45;;;;;;;10.32;100.00;101095.72;5108753;28;20097;-77
2021/12/30 00:44:12;;;;;;;50.45;9.07;;;;;;;10.35;100.00;101095.81;5083343;28;20020;-77
2021/12/30 00:46:38;;;;;;;41.00;9.05;;;;;;;10.43;100.00;101095.13;5113271;28;20490;-76
2021/12/30 00:49:03;;;;;;;65.88;11.18;;;;;;;10.50;100.00;101097.88;5107452;28;20024;-77
2021/12/30 00:51:29;;;;;;;49.65;9.43;;;;;;;10.54;100.00;101089.19;5109521;28;20063;-76
2021/12/30 00:53:55;;;;;;;42.40;8.57;;;;;;;10.58;100.00;101081.41;5098165;28;20023;-76
2021/12/30 00:56:21;;;;;;;51.15;10.10;;;;;;;10.61;100.00;101091.13;5094591;28;20071;-77
2021/12/30 00:58:48;;;;;;;47.97;9.38;;;;;;;10.68;100.00;101087.75;5115644;28;20043;-77
2021/12/30 01:01:13;;;;;;;40.13;7.63;;;;;;;10.77;100.00;101101.09;5106175;28;20035;-77
2021/12/30 01:03:40;;;;;;;45.20;8.93;;;;;;;10.83;100.00;101089.78;5091485;28;20476;-76
2021/12/30 01:06:06;;;;;;;48.15;8.15;;;;;;;10.88;100.00;101087.22;5113917;28;20120;-77
2021/12/30 01:08:32;;;;;;;44.50;7.70;;;;;;;10.95;100.00;101086.50;5094448;28;20544;-76
2021/12/30 01:11:01;;;;;;;35.85;6.35;;;;;;;11.00;100.00;101087.50;5107186;28;20027;-77
2021/12/30 01:13:30;;;;;;;45.20;9.10;;;;;;;11.06;100.00;101084.94;5089543;28;20059;-76
2021/12/30 01:16:01;;;;;;;37.50;8.38;;;;;;;11.09;100.00;101085.00;5110345;28;20031;-77
2021/12/30 01:18:43;;;;;;;38.72;8.35;;;;;;;11.16;100.00;101095.66;5085615;28;20030;-77
2021/12/30 01:21:13;;;;;;;32.83;8.35;;;;;;;11.16;100.00;101085.13;5095079;28;20026;-77
2021/12/30 01:23:41;;;;;;;31.88;9.65;;;;;;;11.14;100.00;101083.34;5105589;28;20035;-76
2021/12/30 01:26:08;;;;;;;34.60;9.77;;;;;;;11.14;100.00;101093.88;5088485;28;20463;-76
2021/12/30 01:28:34;;;;;;;33.78;9.93;;;;;;;11.10;100.00;101099.94;5094995;28;20028;-77
2021/12/30 01:31:01;;;;;;;35.95;11.65;;;;;;;11.09;100.00;101113.09;5113690;28;20356;-77
2021/12/30 01:33:27;;;;;;;43.83;11.70;;;;;;;11.07;100.00;101113.06;5107965;28;20042;-76
2021/12/30 01:35:57;;;;;;;43.20;12.65;;;;;;;11.04;100.00;101120.91;5107074;28;20043;-76
2021/12/30 01:38:22;;;;;;;41.47;12.27;;;;;;;11.06;100.00;101140.25;5080500;28;20082;-76
2021/12/30 01:40:53;;;;;;;42.28;12.35;;;;;;;11.02;100.00;101146.31;5096508;28;20051;-76
2021/12/30 01:43:19;;;;;;;41.50;12.48;;;;;;;11.02;100.00;101169.16;5093115;28;20045;-76
2021/12/30 01:45:45;;;;;;;40.42;13.82;;;;;;;11.07;100.00;101154.28;5107895;28;20028;-77
2021/12/30 01:48:12;;;;;;;38.88;12.35;;;;;;;11.07;100.00;101149.03;5085763;28;20028;-76
2021/12/30 01:50:39;;;;;;;40.75;12.32;;;;;;;11.06;100.00;101142.00;5093399;28;20012;-76
2021/12/30 01:53:05;;;;;;;38.55;12.60;;;;;;;11.06;100.00;101149.91;5094703;28;20030;-76
2021/12/30 01:55:33;;;;;;;39.78;12.70;;;;;;;11.06;100.00;101150.78;5110471;28;20028;-76
2021/12/30 01:58:00;;;;;;;40.60;11.48;;;;;;;11.07;100.00;101155.19;5103978;28;20023;-76
2021/12/30 02:00:29;;;;;;;37.35;11.55;;;;;;;11.12;100.00;101143.03;5081026;28;20495;-77
2021/12/30 02:02:55;;;;;;;25.33;10.77;;;;;;;11.14;100.00;101141.28;5106960;28;20039;-76
2021/12/30 02:05:21;;;;;;;38.63;11.38;;;;;;;11.17;100.00;101147.50;5109938;28;20019;-77
2021/12/30 02:07:50;;;;;;;32.20;10.88;;;;;;;11.16;100.00;101149.22;5091846;28;20084;-77
2021/12/30 02:10:16;;;;;;;25.95;9.73;;;;;;;11.23;100.00;101155.47;5109773;28;20040;-76
2021/12/30 02:12:46;;;;;;;24.73;9.13;;;;;;;11.25;100.00;101143.25;5088034;28;20119;-76
2021/12/30 02:15:15;;;;;;;26.58;8.93;;;;;;;11.27;100.00;101138.88;5097331;28;20028;-77
2021/12/30 02:17:42;;;;;;;22.75;8.73;;;;;;;11.29;100.00;101140.69;5109689;28;20030;-76
2021/12/30 02:20:13;;;;;;;18.63;7.45;;;;;;;11.35;100.00;101134.63;5096392;28;20051;-76
2021/12/30 02:22:41;;;;;;;19.50;7.72;;;;;;;11.35;100.00;101134.63;5086822;28;20020;-76
2021/12/30 02:25:12;;;;;;;17.85;7.22;;;;;;;11.37;100.00;101137.31;5087585;28;20028;-75
2021/12/30 02:27:38;;;;;;;18.52;6.70;;;;;;;11.43;100.00;101138.28;5082790;28;20030;-76
2021/12/30 02:30:04;;;;;;;17.38;7.32;;;;;;;11.42;100.00;101141.81;5098263;28;20103;-76
2021/12/30 02:32:29;;;;;;;20.92;7.38;;;;;;;11.39;100.00;101141.72;5078946;28;20078;-77
2021/12/30 02:34:54;;;;;;;15.20;7.40;;;;;;;11.41;100.00;101152.31;5084356;28;20383;-77
2021/12/30 02:37:20;;;;;;;15.43;6.90;;;;;;;11.42;100.00;101157.63;5089613;28;20533;-76
2021/12/30 02:39:55;;;;;;;18.58;6.95;;;;;;;11.44;100.00;101171.69;5087967;28;20446;-77
2021/12/30 02:42:23;;;;;;;11.13;6.15;;;;;;;11.44;100.00;101162.91;5066759;28;20041;-77
2021/12/30 02:44:51;;;;;;;14.30;6.25;;;;;;;11.46;100.00;101166.44;5072139;28;20027;-77
2021/12/30 02:47:17;;;;;;;16.95;6.65;;;;;;;11.43;100.00;101164.63;5058905;28;20097;-76
2021/12/30 02:49:47;;;;;;;17.17;6.63;;;;;;;11.45;100.00;101173.47;5072080;28;20302;-77
2021/12/30 02:52:12;;;;;;;20.48;7.43;;;;;;;11.46;100.00;101175.25;5061646;28;20025;-76
2021/12/30 02:54:39;;;;;;;15.93;6.35;;;;;;;11.44;100.00;101162.91;5063825;28;20487;-76
2021/12/30 02:57:05;;;;;;;19.40;5.93;;;;;;;11.43;100.00;101162.00;5059161;28;20032;-77
2021/12/30 02:59:31;;;;;;;20.08;6.28;;;;;;;11.44;100.00;101161.16;5060527;28;20029;-76
2021/12/30 03:01:57;;;;;;;17.40;7.88;;;;;;;11.46;100.00;101170.00;5062197;28;20024;-77
2021/12/30 03:04:29;;;;;;;19.77;7.25;;;;;;;11.47;100.00;101152.41;5063000;28;20149;-76
2021/12/30 03:06:57;;;;;;;23.17;8.30;;;;;;;11.47;100.00;101155.94;5061561;28;20025;-77
2021/12/30 03:09:23;;;;;;;19.88;8.88;;;;;;;11.51;100.00;101154.25;5056054;28;20044;-77
2021/12/30 03:11:49;;;;;;;25.67;9.50;;;;;;;11.48;100.00;101152.44;5063880;28;20476;-76
2021/12/30 03:14:14;;;;;;;26.45;9.27;;;;;;;11.47;100.00;101161.19;5066497;28;20032;-76
2021/12/30 03:16:42;;;;;;;28.17;10.48;;;;;;;11.51;100.00;101146.34;5055707;28;20026;-76
2021/12/30 03:19:08;;;;;;;23.60;8.77;;;;;;;11.48;100.00;101151.56;5065632;28;20044;-76
2021/12/30 03:21:34;;;;;;;28.45;9.95;;;;;;;11.48;100.00;101152.44;5069220;28;20134;-77
2021/12/30 03:24:01;;;;;;;35.30;10.52;;;;;;;11.48;100.00;101154.19;5062312;28;20119;-77
2021/12/30 03:26:29;;;;;;;32.67;11.55;;;;;;;11.50;100.00;101154.22;5074564;28;20119;-77
2021/12/30 03:28:55;;;;;;;31.48;10.05;;;;;;;11.51;100.00;101146.34;5067961;28;20552;-76
2021/12/30 03:31:21;;;;;;;33.22;10.10;;;;;;;11.49;100.00;101155.97;5057326;28;20036;-77
2021/12/30 03:33:48;;;;;;;33.50;9.75;;;;;;;11.44;100.00;101158.50;5063843;28;20036;-76
2021/12/30 03:36:18;;;;;;;37.28;10.15;;;;;;;11.43;100.00;101154.09;5057752;28;20465;-76
2021/12/30 03:38:49;;;;;;;32.13;9.65;;;;;;;11.43;100.00;101167.28;5067952;28;20047;-76
2021/12/30 03:41:18;;;;;;;31.95;10.65;;;;;;;11.41;100.00;101163.75;5063349;28;20032;-76
2021/12/30 03:43:43;;;;;;;32.03;10.57;;;;;;;11.40;100.00;101175.13;5085787;28;20024;-77
2021/12/30 03:46:09;;;;;;;31.00;10.38;;;;;;;11.40;100.00;101174.25;5098712;28;20372;-77
2021/12/30 03:48:41;;;;;;;37.10;11.13;;;;;;;11.42;100.00;101188.34;5109675;28;20153;-77
2021/12/30 03:51:09;;;;;;;33.67;11.32;;;;;;;11.42;100.00;101183.06;5104964;28;20028;-77
2021/12/30 03:53:39;;;;;;;48.63;14.27;;;;;;;11.40;100.00;101187.44;5104032;28;20031;-77
2021/12/30 03:56:13;;;;;;;49.35;14.23;;;;;;;11.42;100.00;101183.97;5087335;28;20039;-77
2021/12/30 03:58:40;;;;;;;41.97;14.30;;;;;;;11.41;100.00;101181.31;5112245;28;20024;-76
2021/12/30 04:01:06;;;;;;;46.35;16.17;;;;;;;11.41;100.00;101171.66;5092436;28;20028;-77
2021/12/30 04:03:32;;;;;;;44.25;15.73;;;;;;;11.44;100.00;101181.34;5107256;28;20020;-77
2021/12/30 04:05:58;;;;;;;41.28;15.40;;;;;;;11.45;100.00;101168.22;5102978;28;20114;-77
2021/12/30 04:08:24;;;;;;;35.90;13.98;;;;;;;11.47;100.00;101166.47;5096251;28;20050;-77
2021/12/30 04:10:50;;;;;;;33.70;13.65;;;;;;;11.48;100.00;101167.38;5105143;28;20082;-77
2021/12/30 04:13:15;;;;;;;37.58;12.30;;;;;;;11.50;100.00;101175.31;5081649;28;20028;-77
2021/12/30 04:15:41;;;;;;;28.70;11.55;;;;;;;11.53;100.00;101175.34;5095918;28;20054;-77
2021/12/30 04:18:06;;;;;;;44.78;12.05;;;;;;;11.53;100.00;101180.63;5083873;28;20031;-77
2021/12/30 04:20:33;;;;;;;26.63;11.60;;;;;;;11.53;100.00;101183.25;5103132;28;20096;-77
2021/12/30 04:22:58;;;;;;;37.78;12.43;;;;;;;11.54;100.00;101178.00;5109676;28;20036;-77
2021/12/30 04:25:24;;;;;;;40.72;13.05;;;;;;;11.59;100.00;101178.09;5099107;28;20016;-76
2021/12/30 04:27:50;;;;;;;39.10;12.10;;;;;;;11.53;100.00;101168.34;5099363;28;20061;-77
2021/12/30 04:30:17;;;;;;;29.48;12.10;;;;;;;11.52;100.00;101181.50;5072683;28;20463;-77
2021/12/30 04:32:43;;;;;;;33.22;11.68;;;;;;;11.50;100.00;101177.94;5080989;28;20038;-77
2021/12/30 04:35:11;;;;;;;40.72;12.63;;;;;;;11.51;100.00;101192.91;5080520;28;20040;-77
2021/12/30 04:37:38;;;;;;;39.25;13.30;;;;;;;11.48;100.00;101176.16;5088300;28;20059;-77
2021/12/30 04:40:06;;;;;;;34.13;12.40;;;;;;;11.51;100.00;101171.81;5107515;28;20074;-77
2021/12/30 04:42:31;;;;;;;36.38;11.45;;;;;;;11.52;100.00;101178.88;5075494;28;20385;-76
2021/12/30 04:44:57;;;;;;;29.55;11.00;;;;;;;11.53;100.00;101172.72;5069321;28;20020;-77
2021/12/30 04:47:23;;;;;;;38.30;12.13;;;;;;;11.49;100.00;101163.88;5073074;28;20105;-77
2021/12/30 04:49:52;;;;;;;40.60;13.50;;;;;;;11.47;100.00;101200.72;5069008;28;20365;-77
2021/12/30 04:52:17;;;;;;;27.15;12.60;;;;;;;11.50;100.00;101180.56;5061003;28;20028;-77
2021/12/30 04:54:43;;;;;;;38.20;13.40;;;;;;;11.45;100.00;101180.50;5058007;28;20393;-76
2021/12/30 04:57:08;;;;;;;40.00;13.23;;;;;;;11.46;100.00;101176.97;5072003;28;20039;-76
2021/12/30 04:59:42;;;;;;;40.05;14.70;;;;;;;11.42;100.00;101175.16;5072529;28;20020;-76
2021/12/30 05:02:08;;;;;;;38.05;13.65;;;;;;;11.35;100.00;101183.81;5066141;28;20042;-77
2021/12/30 05:04:33;;;;;;;34.25;12.23;;;;;;;11.38;100.00;101174.22;5072950;28;20025;-76
2021/12/30 05:06:59;;;;;;;35.83;13.23;;;;;;;11.38;100.00;101166.34;5065878;28;20036;-77
2021/12/30 05:09:24;;;;;;;40.80;11.32;;;;;;;11.40;100.00;101163.72;5075969;28;20036;-76
2021/12/30 05:11:50;;;;;;;27.80;10.60;;;;;;;11.44;100.00;101169.06;5069733;28;20032;-76
2021/12/30 05:14:16;;;;;;;25.17;7.97;;;;;;;11.47;100.00;101178.78;5070679;28;20388;-77
2021/12/30 05:16:46;;;;;;;33.75;9.80;;;;;;;11.50;100.00;101170.03;5069783;28;20061;-77
2021/12/30 05:19:21;;;;;;;23.17;6.72;;;;;;;11.53;100.00;101185.91;5073978;28;20032;-76
2021/12/30 05:21:51;;;;;;;15.05;6.15;;;;;;;11.56;100.00;101185.97;5061224;28;20066;-77
2021/12/30 05:24:17;;;;;;;12.75;5.00;;;;;;;11.57;100.00;101182.44;5068830;28;20043;-77
2021/12/30 05:26:42;;;;;;;14.45;4.97;;;;;;;11.62;100.00;101188.69;5058493;28;20488;-77
2021/12/30 05:29:09;;;;;;;15.00;3.90;;;;;;;11.64;100.00;101179.09;5072965;28;20029;-77
2021/12/30 05:31:40;;;;;;;15.98;4.50;;;;;;;11.66;100.00;101182.63;5072551;28;20070;-76
2021/12/30 05:34:06;;;;;;;18.23;4.20;;;;;;;11.63;100.00;101188.72;5072198;28;20461;-77
2021/12/30 05:36:31;;;;;;;17.15;3.85;;;;;;;11.68;100.00;101178.28;5063642;28;20107;-76
2021/12/30 05:38:57;;;;;;;15.15;3.47;;;;;;;11.73;100.00;101173.06;5070323;28;20051;-77
2021/12/30 05:41:25;;;;;;;14.93;4.45;;;;;;;11.73;100.00;101167.78;5071232;28;20109;-76
2021/12/30 05:43:51;;;;;;;16.08;3.80;;;;;;;11.73;100.00;101173.94;5087430;28;20023;-77
2021/12/30 05:46:17;;;;;;;20.67;3.83;;;;;;;11.74;100.00;101165.19;5095467;28;20081;-77
2021/12/30 05:48:42;;;;;;;13.98;3.40;;;;;;;11.79;100.00;101176.69;5107456;28;20066;-76
2021/12/30 05:51:08;;;;;;;21.05;4.47;;;;;;;11.87;100.00;101181.22;5107126;28;20035;-76
2021/12/30 05:53:33;;;;;;;16.75;3.00;;;;;;;11.85;100.00;101197.00;5077055;28;20785;-76
2021/12/30 05:55:59;;;;;;;17.92;3.17;;;;;;;11.94;100.00;101210.38;5100673;28;20060;-77
2021/12/30 05:58:33;;;;;;;14.65;3.00;;;;;;;11.97;100.00;101217.47;5083955;28;20382;-75
2021/12/30 06:01:06;;;;;;;19.20;3.58;;;;;;;12.00;100.00;101208.72;5105839;28;20455;-76
2021/12/30 06:03:31;;;;;;;16.52;3.78;;;;;;;12.02;100.00;101223.72;5086954;28;20053;-76
2021/12/30 06:05:57;;;;;;;13.48;4.07;;;;;;;12.03;100.00;101217.59;5090071;28;20036;-76
2021/12/30 06:08:22;;;;;;;19.90;4.97;;;;;;;12.05;100.00;101217.59;5098571;28;20114;-76
2021/12/30 06:10:51;;;;;;;12.77;4.43;;;;;;;12.03;100.00;101204.38;5101046;28;20438;-76
2021/12/30 06:13:16;;;;;;;15.48;4.45;;;;;;;12.07;100.00;101219.41;5079059;28;20463;-76
2021/12/30 06:15:42;;;;;;;14.15;4.97;;;;;;;12.07;100.00;101232.59;5108130;28;20034;-76
2021/12/30 06:18:07;;;;;;;15.27;5.10;;;;;;;12.07;100.00;101221.13;5086512;28;20047;-76
2021/12/30 06:20:33;;;;;;;20.38;6.55;;;;;;;12.11;100.00;101229.16;5096419;28;20032;-76
2021/12/30 06:22:59;;;;;;;13.23;5.25;;;;;;;12.13;100.00;101237.94;5077084;28;20078;-77
2021/12/30 06:25:25;;;;;;;12.50;6.03;;;;;;;12.14;100.00;101226.53;5101928;28;20468;-76
2021/12/30 06:27:50;;;;;;;11.95;6.07;;;;;;;12.13;100.00;101237.94;5094979;28;20034;-75
2021/12/30 06:30:17;;;;;;;11.88;5.18;;;;;;;12.16;100.00;101223.06;5094075;28;20028;-76
2021/12/30 06:32:42;;;;;;;11.88;4.65;;;;;;;12.13;100.00;101221.25;5099590;28;20036;-76
2021/12/30 06:35:14;;;;;;;11.30;3.63;;;;;;;12.11;100.00;101226.50;5084247;28;20653;-76
2021/12/30 06:37:40;;;;;;;7.88;2.85;;;;;;;12.07;100.00;101229.97;5094450;28;20058;-77
2021/12/30 06:40:08;;;;;;;9.73;2.78;;;;;;;12.09;100.00;101236.13;5099711;28;20031;-76
2021/12/30 06:42:34;;;;;;;9.80;2.92;;;;;;;12.07;100.00;101237.88;5110170;28;20475;-77
2021/12/30 06:45:00;;;;;;;9.13;3.35;;;;;;;11.97;100.00;101228.00;5082269;28;20380;-76
2021/12/30 06:47:26;;;;;;;12.88;3.70;;;;;;;11.97;100.00;101235.94;5103666;28;20038;-76
2021/12/30 06:49:52;;;;;;;9.68;3.22;;;;;;;11.88;100.00;101241.00;5088512;28;20032;-76
2021/12/30 06:52:19;;;;;;;12.48;4.15;;;;;;;11.84;100.00;101257.63;5098449;28;20094;-76
2021/12/30 06:54:49;;;;;;;10.50;4.13;;;;;;;11.80;100.00;101254.03;5107785;28;20019;-76
2021/12/30 06:57:15;;;;;;;12.35;4.15;;;;;;;11.76;100.00;101250.47;5108130;28;20085;-76
2021/12/30 06:59:40;;;;;;;8.98;4.13;;;;;;;11.68;100.00;101260.00;5108687;28;20023;-76
2021/12/30 07:02:07;;;;;;;10.35;3.75;;;;;;;11.64;100.00;101268.72;5091543;28;20031;-77
2021/12/30 07:04:33;;;;;;;10.65;3.63;;;;;;;11.66;100.00;101277.53;5113072;28;20072;-77
2021/12/30 07:07:01;;;;;;;13.45;4.05;;;;;;;11.62;100.00;101268.69;5102811;28;20040;-77
2021/12/30 07:09:27;;;;;;;12.68;4.20;;;;;;;11.61;100.00;101271.25;5086272;28;20031;-77
2021/12/30 07:11:54;;;;;;;19.10;5.63;;;;;;;11.55;100.00;101268.53;5088486;28;20027;-76
2021/12/30 07:14:28;;;;;;;23.38;7.03;;;;;;;11.55;100.00;101252.72;5080468;28;20112;-76
2021/12/30 07:16:54;;;;;;;19.95;6.10;;;;;;;11.57;100.00;101262.44;5112378;28;20038;-77
2021/12/30 07:19:20;;;;;;;27.70;6.68;;;;;;;11.50;100.00;101255.25;5110070;28;20035;-77
2021/12/30 07:21:46;;;;;;;27.95;6.75;;;;;;;11.50;100.00;101270.19;5088330;28;20114;-77
2021/12/30 07:24:12;;;;;;;32.78;7.15;;;;;;;11.51;100.00;101262.28;5113783;28;20043;-76
2021/12/30 07:26:38;;;;;;;27.42;6.82;;;;;;;11.54;100.00;101269.38;5103127;28;20415;-76
2021/12/30 07:29:04;;;;;;;29.00;6.97;;;;;;;11.48;100.00;101278.06;5097140;28;20028;-76
2021/12/30 07:31:29;;;;;;;32.10;7.78;;;;;;;11.54;100.00;101286.06;5107526;28;20063;-76
2021/12/30 07:33:56;;;;;;;25.80;6.22;;;;;;;11.51;100.00;101287.78;5085999;28;20070;-76
2021/12/30 07:36:22;;;;;;;34.72;7.30;;;;;;;11.53;100.00;101288.69;5108202;28;20490;-77
2021/12/30 07:38:50;;;;;;;28.10;6.95;;;;;;;11.55;100.00;101297.53;5096715;28;20062;-75
2021/12/30 07:41:17;;;;;;;25.75;6.85;;;;;;;11.53;100.00;101301.84;5091505;28;20088;-75
2021/12/30 07:43:43;;;;;;;30.10;6.00;;;;;;;11.51;100.00;101308.84;5091117;28;20030;-75
2021/12/30 07:46:11;;;;;;;34.63;7.13;;;;;;;11.53;100.00;101310.66;5106855;28;20127;-74
2021/12/30 07:48:37;;;;;;;28.55;6.43;;;;;;;11.57;100.00;101319.50;5107923;28;20555;-73
2021/12/30 07:51:04;;;;;;;35.25;7.00;;;;;;;11.51;100.00;101308.84;5085170;28;20023;-72
2021/12/30 07:53:30;;;;;;;30.00;6.45;;;;;;;11.52;100.00;101313.28;5108788;28;20040;-73
2021/12/30 07:55:56;;;;;;;22.42;6.00;;;;;;;11.53;100.00;101315.94;5107063;28;20107;-72
2021/12/30 07:58:21;;;;;;;31.10;6.68;;;;;;;11.52;100.00;101321.19;5079714;28;20066;-72
2021/12/30 08:00:47;;;;;;;37.63;6.45;;;;;;;11.48;100.00;101321.09;5097873;28;20040;-72
2021/12/30 08:03:12;;;;;;;37.60;7.50;;;;;;;11.52;100.00;101331.72;5104434;28;20030;-72
2021/12/30 08:05:38;;;;;;;41.03;7.38;;;;;;;11.56;100.00;101344.13;5096968;28;20019;-72
2021/12/30 08:08:06;;;;;;;41.85;7.78;;;;;;;11.56;100.00;101333.56;5102222;28;20527;-71
2021/12/30 08:10:31;;;;;;;40.38;7.43;;;;;;;11.55;100.00;101322.13;5095922;28;20052;-73
2021/12/30 08:12:57;;;;;;;39.65;7.18;;;;;;;11.58;100.00;101329.19;5085872;28;20062;-72
2021/12/30 08:15:23;;;;;;;40.45;6.85;;;;;;;11.60;100.00;101335.41;5098238;28;20023;-73
2021/12/30 08:17:50;;;;;;;36.28;6.35;;;;;;;11.56;100.00;101359.94;5107881;28;20019;-73
2021/12/30 08:20:18;;;;;;;47.83;6.50;;;;;;;11.60;100.00;101351.22;5103021;28;20031;-73
2021/12/30 08:22:44;;;;;;;37.40;6.93;;;;;;;11.63;100.00;101362.69;5090473;28;20044;-73
2021/12/30 08:25:11;;;;;;;51.63;7.50;;;;;;;11.60;100.00;101340.69;5101876;28;20028;-74
2021/12/30 08:27:37;;;;;;;37.45;6.40;;;;;;;11.61;100.00;101348.63;5104721;28;20483;-72
2021/12/30 08:30:05;;;;;;;46.88;8.68;;;;;;;11.61;100.00;101356.53;5105033;28;20023;-72
2021/12/30 08:32:31;;;;;;;43.83;7.82;;;;;;;11.57;100.00;101367.88;5108949;28;20032;-72
2021/12/30 08:34:56;;;;;;;45.53;7.82;;;;;;;11.62;100.00;101352.13;5099791;28;20438;-72
2021/12/30 08:37:22;;;;;;;47.75;8.50;;;;;;;11.60;100.00;101348.59;5107535;28;20031;-72
2021/12/30 08:39:47;;;;;;;44.42;7.03;;;;;;;11.54;100.00;101345.81;5105664;28;20076;-72
2021/12/30 08:42:26;;;;;;;41.58;6.85;;;;;;;11.58;100.00;101359.06;5109761;28;20040;-72
2021/12/30 08:44:54;;;;;;;41.58;7.28;;;;;;;11.55;100.00;101363.41;5100251;28;20120;-72
2021/12/30 08:47:22;;;;;;;42.20;7.57;;;;;;;11.62;100.00;101365.31;5090185;28;20019;-72
2021/12/30 08:49:49;;;;;;;45.10;7.82;;;;;;;11.60;100.00;101361.75;5105435;28;20024;-73
2021/12/30 08:52:16;;;;;;;56.28;8.95;;;;;;;11.59;100.00;101371.41;5108999;28;20387;-73
2021/12/30 08:54:42;;;;;;;42.15;7.70;;;;;;;11.60;100.00;101391.63;5099511;28;20479;-74
2021/12/30 08:57:08;;;;;;;48.90;8.80;;;;;;;11.56;100.00;101370.47;5102705;28;20036;-72
2021/12/30 08:59:35;;;;;;;49.58;7.53;;;;;;;11.59;100.00;101381.06;5099345;28;20483;-73
2021/12/30 09:02:06;;;;;;;48.88;7.13;;;;;;;11.57;100.00;101382.75;5101356;28;20099;-72
2021/12/30 09:04:32;;;;;;;38.42;6.43;;;;;;;11.58;100.00;101387.19;5103043;28;20077;-73
2021/12/30 09:07:00;;;;;;;48.90;6.88;;;;;;;11.61;100.00;101387.25;5089114;28;20483;-72
2021/12/30 09:09:26;;;;;;;49.05;7.82;;;;;;;11.64;100.00;101393.47;5095332;28;20032;-73
2021/12/30 09:11:51;;;;;;;44.25;7.43;;;;;;;11.68;100.00;101386.53;5099399;28;20421;-73
2021/12/30 09:14:19;;;;;;;40.95;6.57;;;;;;;11.72;100.00;101391.00;5097876;28;20039;-72
2021/12/30 09:16:44;;;;;;;45.95;6.38;;;;;;;11.76;100.00;101390.22;5087483;28;20038;-72
2021/12/30 09:19:11;;;;;;;48.10;7.53;;;;;;;11.81;100.00;101392.94;5105124;28;20019;-72
2021/12/30 09:21:38;;;;;;;35.88;6.70;;;;;;;11.84;100.00;101392.09;5103530;28;20020;-72
2021/12/30 09:24:06;;;;;;;42.53;6.57;;;;;;;11.87;100.00;101381.63;5098078;28;20031;-72
2021/12/30 09:26:32;;;;;;;38.03;6.07;;;;;;;11.94;100.00;101391.44;5105243;28;20132;-72
2021/12/30 09:28:57;;;;;;;48.70;7.05;;;;;;;11.90;100.00;101413.34;5097158;28;20039;-72
2021/12/30 09:31:23;;;;;;;39.92;6.72;;;;;;;11.87;100.00;101398.34;5095744;28;20028;-72
2021/12/30 09:33:51;;;;;;;36.50;6.85;;;;;;;11.85;100.00;101409.72;5098195;28;20035;-72
2021/12/30 09:36:16;;;;;;;34.05;7.00;;;;;;;11.83;100.00;101407.06;5077049;28;20151;-71
2021/12/30 09:38:42;;;;;;;47.47;7.72;;;;;;;11.79;100.00;101416.63;5097715;28;20656;-72
2021/12/30 09:41:08;;;;;;;57.83;8.38;;;;;;;11.78;100.00;101425.41;5100563;28;20034;-72
2021/12/30 09:43:34;;;;;;;38.72;7.28;;;;;;;11.74;100.00;101423.56;5093029;28;20375;-70
2021/12/30 09:46:00;;;;;;;44.00;7.32;;;;;;;11.75;100.00;101424.47;5104859;28;20391;-72
2021/12/30 09:48:27;;;;;;;47.35;8.52;;;;;;;11.73;100.00;101419.13;5097582;28;20027;-71
2021/12/30 09:50:54;;;;;;;37.72;8.77;;;;;;;11.70;100.00;101426.09;5101442;28;20467;-71
2021/12/30 09:53:22;;;;;;;60.75;10.20;;;;;;;11.69;100.00;101433.09;5101685;28;20070;-70
2021/12/30 09:55:49;;;;;;;56.33;10.57;;;;;;;11.70;100.00;101426.97;5097509;28;20484;-71
2021/12/30 09:58:15;;;;;;;41.72;9.65;;;;;;;11.79;100.00;101427.19;5099711;28;20231;-72
2021/12/30 10:00:43;;;;;;;39.88;10.32;;;;;;;11.81;100.00;101424.56;5082779;28;20068;-71
2021/12/30 10:03:09;;;;;;;49.40;9.38;;;;;;;11.80;100.00;101439.53;5100663;28;20024;-71
2021/12/30 10:05:38;;;;;;;44.55;9.63;;;;;;;11.89;100.00;101427.38;5101818;28;20141;-72
2021/12/30 10:08:24;;;;;;;41.83;8.80;;;;;;;11.89;100.00;101420.34;5099109;28;20059;-72
2021/12/30 10:11:03;;;;;;;50.88;12.75;;;;;;;11.89;100.00;101435.28;5084317;28;20028;-72
2021/12/30 10:13:31;;;;;;;35.60;8.07;;;;;;;11.94;100.00;101431.00;5095701;28;20026;-72
2021/12/30 10:15:58;;;;;;;29.92;7.47;;;;;;;11.93;100.00;101423.94;5103363;28;20032;-71
2021/12/30 10:18:40;;;;;;;34.92;7.88;;;;;;;11.92;100.00;101427.44;5101088;28;20055;-72
2021/12/30 10:21:15;;;;;;;48.08;7.00;;;;;;;11.93;100.00;101439.78;5100842;28;20437;-73
2021/12/30 10:23:51;;;;;;;33.10;7.30;;;;;;;11.90;100.00;101434.44;5100771;28;20436;-73
2021/12/30 10:26:16;;;;;;;39.47;7.70;;;;;;;11.97;100.00;101424.06;5100435;28;20615;-72
2021/12/30 10:28:43;;;;;;;34.45;7.00;;;;;;;11.94;100.00;101436.28;5097543;28;20035;-73
2021/12/30 10:31:12;;;;;;;35.05;6.28;;;;;;;11.98;100.00;101443.44;5112137;28;20028;-74
2021/12/30 10:33:59;;;;;;;36.42;6.53;;;;;;;11.96;100.00;101447.78;5103616;28;20088;-72
2021/12/30 10:36:37;;;;;;;36.05;5.32;;;;;;;12.02;100.00;101449.63;5111372;28;20491;-71
2021/12/30 10:39:25;;;;;;;30.98;6.22;;;;;;;12.03;100.00;101439.16;5104750;28;20024;-71
2021/12/30 10:42:16;;;;;;;34.10;5.50;;;;;;;12.03;100.00;101441.78;5079898;28;20045;-72
2021/12/30 10:44:53;;;;;;;31.50;5.03;;;;;;;12.00;100.00;101439.06;5064063;28;20452;-71
2021/12/30 10:47:21;;;;;;;25.70;4.88;;;;;;;12.07;100.00;101435.72;5059694;28;20025;-72
2021/12/30 10:50:05;;;;;;;26.08;4.82;;;;;;;12.01;100.00;101448.75;5065601;28;20038;-72
2021/12/30 10:52:30;;;;;;;25.53;5.03;;;;;;;12.05;100.00;101440.06;5064926;28;20384;-72
2021/12/30 10:54:58;;;;;;;25.42;5.53;;;;;;;12.03;100.00;101441.78;5061990;28;20301;-71
2021/12/30 10:57:29;;;;;;;24.60;5.00;;;;;;;12.05;100.00;101440.06;5059820;28;20098;-71
2021/12/30 10:59:56;;;;;;;25.58;5.20;;;;;;;12.08;100.00;101450.66;5059169;28;20060;-71
2021/12/30 11:02:24;;;;;;;28.75;7.00;;;;;;;12.08;100.00;101440.09;5070936;28;20078;-71
2021/12/30 11:04:53;;;;;;;30.77;7.40;;;;;;;12.10;100.00;101471.78;5062919;28;20025;-71
2021/12/30 11:07:37;;;;;;;25.10;7.05;;;;;;;12.08;100.00;101437.47;5067254;28;20021;-72